Time;durP1;ratioP1;P1;durP2;ratioP2;P2;SDS_P1;SDS_P2;PMS_P1;PMS_P2;Temp;Humidity;BMP_temperature;BMP_pressure;BME280_temperature;BME280_humidity;BME280_pressure;Samples;Min_cycle;Max_cycle;Signal;HPM_P1;HPM_P2
2023/10/24 00:01:02;;;;;;;2.83;1.50;;;;;;;14.59;73.69;99287.50;4467791;32;33914;-75
2023/10/24 00:03:36;;;;;;;4.93;2.45;;;;;;;14.67;73.08;99306.38;4465259;32;35566;-77
2023/10/24 00:06:05;;;;;;;3.47;1.92;;;;;;;14.82;72.66;99305.81;4462844;32;33094;-79
2023/10/24 00:08:34;;;;;;;4.37;2.12;;;;;;;14.68;73.25;99308.06;4462235;32;34648;-76
2023/10/24 00:11:04;;;;;;;5.12;2.08;;;;;;;14.76;72.97;99302.56;4462787;32;34080;-75
2023/10/24 00:13:36;;;;;;;3.70;1.95;;;;;;;14.70;72.97;99291.44;4467639;32;33625;-77
2023/10/24 00:16:06;;;;;;;5.43;2.12;;;;;;;14.90;72.33;99289.84;4468761;32;34732;-77
2023/10/24 00:18:38;;;;;;;3.55;2.10;;;;;;;14.72;72.85;99280.94;4470870;32;33483;-77
2023/10/24 00:21:07;;;;;;;6.05;2.40;;;;;;;14.46;73.89;99272.25;4469687;31;32967;-75
2023/10/24 00:23:44;;;;;;;3.03;1.90;;;;;;;14.49;73.98;99266.91;4481532;31;34148;-77
2023/10/24 00:26:13;;;;;;;3.95;2.05;;;;;;;14.47;73.77;99268.75;4471372;31;34100;-79
2023/10/24 00:28:43;;;;;;;3.25;2.03;;;;;;;14.65;73.55;99263.81;4472095;31;33677;-76
2023/10/24 00:31:13;;;;;;;3.62;1.87;;;;;;;14.73;73.54;99259.97;4474841;31;34526;-78
2023/10/24 00:33:47;;;;;;;2.95;1.50;;;;;;;14.55;74.06;99246.78;4478361;32;33571;-78
2023/10/24 00:36:16;;;;;;;5.85;2.22;;;;;;;14.51;74.10;99236.41;4482047;31;34715;-76
2023/10/24 00:38:53;;;;;;;3.97;2.28;;;;;;;14.72;73.69;99233.94;4475465;32;34745;-76
2023/10/24 00:41:27;;;;;;;3.28;1.80;;;;;;;14.72;73.44;99224.34;4474942;31;34005;-75
2023/10/24 00:43:56;;;;;;;4.07;1.95;;;;;;;14.75;73.04;99219.94;4475832;31;33944;-75
2023/10/24 00:46:25;;;;;;;4.25;2.45;;;;;;;14.71;73.17;99225.28;4466365;32;34177;-75
2023/10/24 00:48:56;;;;;;;5.18;1.92;;;;;;;14.70;72.99;99218.34;4467924;32;33643;-79
2023/10/24 00:51:28;;;;;;;3.08;1.85;;;;;;;15.02;71.69;99225.84;4477279;32;32530;-78
2023/10/24 00:53:58;;;;;;;3.30;1.90;;;;;;;14.72;73.29;99220.91;4479539;32;33645;-77
2023/10/24 00:56:31;;;;;;;7.72;2.53;;;;;;;14.44;75.14;99228.84;4477378;32;33239;-77
2023/10/24 00:59:00;;;;;;;3.20;1.67;;;;;;;14.96;72.64;99229.56;4478410;32;34122;-76
2023/10/24 01:01:31;;;;;;;7.75;2.78;;;;;;;14.54;74.28;99235.47;4483140;32;33432;-78
2023/10/24 01:04:03;;;;;;;5.18;2.40;;;;;;;14.65;73.88;99248.16;4480123;32;34963;-76
2023/10/24 01:06:33;;;;;;;4.40;2.10;;;;;;;14.71;73.40;99243.56;4479014;32;34255;-77
2023/10/24 01:09:03;;;;;;;5.57;2.30;;;;;;;15.01;72.05;99253.75;4477372;32;33409;-75
2023/10/24 01:11:32;;;;;;;3.42;2.00;;;;;;;14.62;73.98;99261.31;4482894;32;32857;-76
2023/10/24 01:14:03;;;;;;;;;;;;;;;14.90;72.75;99274.19;4476587;31;33445;-75
2023/10/24 01:16:41;;;;;;;5.18;2.30;;;;;;;14.50;74.48;99268.63;4475400;31;35126;-77
2023/10/24 01:19:19;;;;;;;3.37;2.22;;;;;;;14.50;74.95;99270.41;4469888;31;33621;-79
2023/10/24 01:21:50;;;;;;;5.68;2.35;;;;;;;14.63;74.33;99274.28;4462118;32;33414;-75
2023/10/24 01:24:19;;;;;;;5.97;2.75;;;;;;;14.72;73.95;99279.19;4463397;32;32088;-76
2023/10/24 01:26:48;;;;;;;4.20;2.35;;;;;;;14.62;73.96;99272.59;4476223;32;33849;-76
2023/10/24 01:29:17;;;;;;;5.10;1.90;;;;;;;14.73;73.33;99265.22;4468613;32;33618;-77
2023/10/24 01:31:49;;;;;;;5.53;3.17;;;;;;;14.60;73.83;99257.91;4465469;32;33488;-76
2023/10/24 01:34:21;;;;;;;4.18;2.08;;;;;;;14.77;72.87;99255.53;4480150;32;35170;-78
2023/10/24 01:36:52;;;;;;;4.35;2.50;;;;;;;14.66;73.58;99249.84;4459975;32;33212;-76
2023/10/24 01:39:24;;;;;;;5.57;1.80;;;;;;;14.70;73.20;99246.22;4467726;32;33491;-76
2023/10/24 01:41:53;;;;;;;5.95;2.70;;;;;;;14.69;73.15;99242.75;4472247;32;33377;-76
2023/10/24 01:44:26;;;;;;;7.12;2.83;;;;;;;14.81;72.76;99251.00;4473241;32;33512;-77
2023/10/24 01:46:55;;;;;;;5.80;2.90;;;;;;;14.11;75.50;99243.94;4474482;32;33742;-75
2023/10/24 01:49:27;;;;;;;6.53;2.37;;;;;;;14.44;74.51;99239.28;4473463;32;34174;-77
2023/10/24 01:51:58;;;;;;;3.05;1.73;;;;;;;14.72;72.71;99239.19;4472159;32;34295;-77
2023/10/24 01:54:29;;;;;;;3.55;2.12;;;;;;;14.43;73.79;99243.66;4479605;32;33734;-77
2023/10/24 01:56:58;;;;;;;4.25;2.00;;;;;;;14.30;74.36;99243.25;4469762;32;33513;-75
2023/10/24 01:59:29;;;;;;;5.10;2.58;;;;;;;14.58;73.02;99236.22;4473180;32;33977;-76
2023/10/24 02:01:58;;;;;;;4.35;2.42;;;;;;;14.55;72.92;99229.34;4476973;32;33246;-79
2023/10/24 02:04:30;;;;;;;4.97;2.62;;;;;;;14.62;72.35;99224.78;4463058;32;33629;-76
2023/10/24 02:07:01;;;;;;;3.33;1.98;;;;;;;14.25;73.85;99224.28;4476448;32;33268;-76
2023/10/24 02:09:34;;;;;;;6.22;2.40;;;;;;;14.52;73.28;99229.41;4467414;32;34292;-75
2023/10/24 02:12:04;;;;;;;5.15;2.37;;;;;;;14.62;72.51;99220.38;4464489;32;33052;-78
2023/10/24 02:14:33;;;;;;;6.43;2.40;;;;;;;14.61;72.08;99210.00;4477007;32;34379;-75
2023/10/24 02:17:03;;;;;;;5.97;2.92;;;;;;;14.34;73.25;99202.25;4477027;32;33771;-76
2023/10/24 02:19:34;;;;;;;3.30;2.08;;;;;;;13.97;74.67;99205.31;4476057;32;34023;-77
2023/10/24 02:22:08;;;;;;;5.05;2.78;;;;;;;14.37;73.24;99209.09;4476744;32;33646;-76
2023/10/24 02:24:46;;;;;;;4.30;2.55;;;;;;;14.37;72.95;99216.94;4463453;32;33677;-76
2023/10/24 02:27:16;;;;;;;4.80;2.30;;;;;;;14.47;72.51;99211.34;4476356;32;34706;-76
2023/10/24 02:29:46;;;;;;;5.22;2.50;;;;;;;14.39;72.42;99220.34;4476308;32;33462;-77
2023/10/24 02:32:17;;;;;;;3.05;1.90;;;;;;;14.23;73.48;99225.25;4477352;32;33138;-77
2023/10/24 02:34:49;;;;;;;9.93;2.40;;;;;;;14.10;74.32;99222.22;4481774;32;33400;-76
2023/10/24 02:37:21;;;;;;;3.57;2.00;;;;;;;14.31;73.28;99225.84;4478421;32;34058;-77
2023/10/24 02:39:50;;;;;;;4.60;2.17;;;;;;;14.49;72.27;99219.94;4466855;32;33660;-76
2023/10/24 02:42:23;;;;;;;4.53;2.22;;;;;;;14.38;72.84;99216.87;4475716;32;32976;-76
2023/10/24 02:44:51;;;;;;;3.72;2.22;;;;;;;14.41;72.86;99232.44;4478010;32;34047;-78
2023/10/24 02:47:24;;;;;;;4.70;2.30;;;;;;;14.39;72.71;99231.63;4475082;32;34998;-78
2023/10/24 02:49:54;;;;;;;5.07;2.70;;;;;;;14.43;72.76;99220.19;4460448;32;33854;-76
2023/10/24 02:52:28;;;;;;;3.17;1.80;;;;;;;14.45;72.36;99210.53;4454615;32;32258;-76
2023/10/24 02:54:57;;;;;;;2.85;1.87;;;;;;;14.50;72.29;99211.22;4463633;32;34380;-79
2023/10/24 02:57:27;;;;;;;6.60;2.40;;;;;;;14.47;72.40;99219.16;4469176;32;34268;-75
2023/10/24 02:59:56;;;;;;;5.25;2.28;;;;;;;14.32;72.91;99201.44;4461091;32;33677;-79
2023/10/24 03:02:27;;;;;;;3.20;1.87;;;;;;;14.31;73.23;99197.16;4474563;32;33146;-77
2023/10/24 03:04:56;;;;;;;4.18;2.22;;;;;;;14.32;73.06;99195.38;4467415;32;33574;-76
2023/10/24 03:07:31;;;;;;;3.85;2.08;;;;;;;14.26;73.49;99176.44;4475191;32;33691;-76
2023/10/24 03:10:01;;;;;;;6.03;2.58;;;;;;;14.37;73.12;99160.38;4482153;32;33833;-77
2023/10/24 03:12:33;;;;;;;4.43;2.37;;;;;;;14.55;72.66;99171.94;4466496;32;33147;-78
2023/10/24 03:15:02;;;;;;;3.75;2.05;;;;;;;14.54;72.34;99174.59;4473588;32;34096;-75
2023/10/24 03:17:33;;;;;;;3.60;1.87;;;;;;;14.65;71.62;99164.59;4470303;32;33760;-79
2023/10/24 03:20:05;;;;;;;4.37;2.28;;;;;;;14.48;72.80;99153.00;4473957;31;33659;-76
2023/10/24 03:22:43;;;;;;;4.43;2.50;;;;;;;13.90;75.67;99134.28;4474376;32;32924;-76
2023/10/24 03:25:13;;;;;;;5.70;2.25;;;;;;;14.15;74.67;99128.16;4478828;32;34645;-75
2023/10/24 03:27:42;;;;;;;3.35;1.92;;;;;;;14.01;75.37;99145.19;4476719;32;34537;-79
2023/10/24 03:30:17;;;;;;;3.75;2.35;;;;;;;13.78;77.25;99156.41;4474702;31;34521;-76
2023/10/24 03:32:46;;;;;;;4.40;2.55;;;;;;;14.12;74.76;99165.66;4468248;32;33412;-79
2023/10/24 03:35:15;;;;;;;4.93;2.10;;;;;;;14.01;75.59;99171.25;4479247;32;33468;-75
2023/10/24 03:37:47;;;;;;;5.07;2.20;;;;;;;14.09;75.03;99164.00;4474146;32;33595;-78
2023/10/24 03:40:23;;;;;;;5.90;2.28;;;;;;;14.10;74.71;99180.50;4471792;32;32928;-77
2023/10/24 03:42:51;;;;;;;3.17;1.75;;;;;;;13.91;75.22;99198.53;4481790;32;34223;-76
2023/10/24 03:45:24;;;;;;;3.83;2.10;;;;;;;13.88;74.91;99196.91;4478606;32;35849;-77
2023/10/24 03:47:53;;;;;;;4.55;2.40;;;;;;;14.20;73.84;99186.22;4476687;32;34787;-75
2023/10/24 03:50:23;;;;;;;3.80;1.98;;;;;;;14.30;72.83;99184.97;4470253;32;34308;-78
2023/10/24 03:52:53;;;;;;;4.15;2.25;;;;;;;14.18;72.97;99186.31;4477224;32;33097;-76
2023/10/24 03:55:25;;;;;;;6.10;2.70;;;;;;;14.09;73.45;99182.25;4479221;32;32830;-76
2023/10/24 03:57:54;;;;;;;4.80;2.20;;;;;;;14.06;72.89;99178.91;4475605;32;33947;-79
2023/10/24 04:00:27;;;;;;;4.80;1.95;;;;;;;14.06;72.80;99171.94;4474975;32;34491;-76
2023/10/24 04:02:56;;;;;;;3.50;2.37;;;;;;;14.06;72.17;99168.47;4474880;32;33643;-77
2023/10/24 04:05:28;;;;;;;5.10;2.12;;;;;;;14.01;72.12;99163.44;4476899;32;33691;-77
2023/10/24 04:07:58;;;;;;;;;;;;;;;13.91;72.48;99163.81;4476431;32;34758;-76
2023/10/24 04:10:28;;;;;;;3.28;2.17;;;;;;;13.86;72.84;99159.59;4477859;32;34953;-77
2023/10/24 04:12:58;;;;;;;;;;;;;;;14.00;72.40;99153.91;4477318;31;33282;-76
2023/10/24 04:15:30;;;;;;;2.97;1.80;;;;;;;13.99;72.24;99157.41;4477414;32;35089;-76
2023/10/24 04:17:59;;;;;;;2.37;1.70;;;;;;;13.83;72.81;99151.03;4483772;32;33719;-76
2023/10/24 04:20:32;;;;;;;5.18;2.10;;;;;;;13.85;72.42;99159.66;4476523;32;33619;-77
2023/10/24 04:23:03;;;;;;;2.83;1.60;;;;;;;13.96;72.62;99154.06;4464050;32;33041;-77
2023/10/24 04:25:33;;;;;;;6.35;2.72;;;;;;;13.87;72.74;99148.28;4469071;32;33450;-76
2023/10/24 04:28:02;;;;;;;3.50;1.85;;;;;;;13.82;72.65;99154.53;4469076;32;33575;-78
2023/10/24 04:30:33;;;;;;;4.00;2.30;;;;;;;14.05;71.90;99157.19;4476329;32;33968;-75
2023/10/24 04:33:02;;;;;;;3.87;1.90;;;;;;;13.81;72.31;99160.66;4475386;32;34445;-77
2023/10/24 04:35:36;;;;;;;4.50;1.85;;;;;;;13.68;72.74;99168.06;4473111;32;34645;-77
2023/10/24 04:38:06;;;;;;;3.53;2.12;;;;;;;13.80;72.45;99161.59;4465296;32;34085;-76
2023/10/24 04:40:37;;;;;;;5.00;2.15;;;;;;;13.76;72.66;99171.25;4471860;32;35398;-76
2023/10/24 04:43:06;;;;;;;4.35;1.90;;;;;;;13.76;72.11;99181.69;4474112;32;33921;-75
2023/10/24 04:45:39;;;;;;;2.78;1.77;;;;;;;13.75;72.10;99185.19;4469794;31;33647;-76
2023/10/24 04:48:08;;;;;;;3.05;2.00;;;;;;;13.74;72.29;99186.09;4473995;32;33693;-78
2023/10/24 04:50:41;;;;;;;6.35;2.53;;;;;;;13.69;72.27;99169.75;4462688;32;197762;-75
2023/10/24 04:53:12;;;;;;;3.47;2.05;;;;;;;13.57;72.67;99159.75;4465179;31;32189;-78
2023/10/24 04:55:43;;;;;;;3.45;2.05;;;;;;;13.61;72.34;99164.81;4476761;31;33638;-77
2023/10/24 04:58:13;;;;;;;6.15;2.47;;;;;;;13.57;72.55;99160.59;4469486;32;33706;-75
2023/10/24 05:00:42;;;;;;;3.90;1.98;;;;;;;13.65;72.18;99152.50;4469847;32;33816;-78
2023/10/24 05:03:11;;;;;;;6.53;2.35;;;;;;;13.57;72.40;99155.37;4473396;32;33446;-76
2023/10/24 05:05:43;;;;;;;4.25;2.25;;;;;;;13.70;71.99;99152.34;4475384;31;33378;-75
2023/10/24 05:08:13;;;;;;;3.17;2.25;;;;;;;13.63;71.88;99159.56;4483160;31;33073;-75
2023/10/24 05:10:47;;;;;;;4.40;2.17;;;;;;;13.52;72.17;99161.66;4485274;31;33913;-78
2023/10/24 05:13:16;;;;;;;3.33;1.45;;;;;;;13.57;71.71;99149.31;4473356;32;33934;-77
2023/10/24 05:15:47;;;;;;;5.12;2.35;;;;;;;13.61;71.48;99150.94;4476791;32;33725;-78
2023/10/24 05:18:15;;;;;;;4.20;2.42;;;;;;;13.43;72.10;99155.87;4471810;32;33196;-77
2023/10/24 05:20:47;;;;;;;3.20;2.03;;;;;;;13.57;71.56;99157.16;4459982;32;33592;-78
2023/10/24 05:23:17;;;;;;;11.10;1.83;;;;;;;13.49;71.75;99153.97;4459714;32;33918;-75
2023/10/24 05:25:50;;;;;;;4.50;2.03;;;;;;;13.34;72.06;99150.13;4463085;32;34170;-77
2023/10/24 05:28:19;;;;;;;5.12;1.95;;;;;;;13.49;71.84;99157.41;4467296;32;34743;-75
2023/10/24 05:30:50;;;;;;;3.10;2.08;;;;;;;13.39;72.21;99154.25;4460909;32;34566;-76
2023/10/24 05:33:19;;;;;;;7.32;2.12;;;;;;;13.34;72.12;99144.91;4465634;32;32278;-76
2023/10/24 05:35:50;;;;;;;5.95;2.25;;;;;;;13.33;72.45;99148.41;4466644;32;34496;-75
2023/10/24 05:38:21;;;;;;;3.33;1.95;;;;;;;13.28;72.68;99151.16;4476536;32;33753;-77
2023/10/24 05:40:50;;;;;;;2.78;1.83;;;;;;;13.30;72.55;99151.09;4460400;32;35748;-76
2023/10/24 05:43:22;;;;;;;3.08;1.95;;;;;;;13.24;72.78;99147.78;4461533;32;33226;-79
2023/10/24 05:45:54;;;;;;;2.65;1.90;;;;;;;13.36;72.83;99140.47;4460330;32;34550;-78
2023/10/24 05:48:25;;;;;;;6.65;2.42;;;;;;;13.33;73.00;99145.78;4460861;32;33816;-78
2023/10/24 05:50:54;;;;;;;7.20;2.83;;;;;;;13.32;73.24;99151.91;4459894;32;32945;-76
2023/10/24 05:53:25;;;;;;;3.53;1.67;;;;;;;13.57;72.46;99162.34;4455920;32;34847;-76
2023/10/24 05:55:58;;;;;;;3.62;1.90;;;;;;;13.57;72.73;99159.75;4456017;32;33177;-75
2023/10/24 05:58:27;;;;;;;3.15;1.75;;;;;;;13.59;72.65;99161.41;4460188;32;33962;-76
2023/10/24 06:01:02;;;;;;;3.78;1.92;;;;;;;13.47;73.31;99160.97;4466395;32;33635;-76
2023/10/24 06:03:31;;;;;;;4.20;2.35;;;;;;;13.47;73.88;99154.00;4458502;32;33091;-75
2023/10/24 06:06:02;;;;;;;3.85;2.08;;;;;;;13.54;74.19;99157.25;4463974;32;33423;-78
2023/10/24 06:08:32;;;;;;;3.50;1.52;;;;;;;13.59;73.68;99157.94;4459587;32;33756;-75
2023/10/24 06:11:03;;;;;;;4.53;2.05;;;;;;;13.54;74.14;99163.31;4459720;32;33023;-79
2023/10/24 06:13:32;;;;;;;4.72;2.17;;;;;;;13.72;73.96;99168.81;4465071;32;33277;-77
2023/10/24 06:16:09;;;;;;;3.65;2.75;;;;;;;13.70;73.89;99176.69;4462718;32;33853;-77
2023/10/24 06:18:38;;;;;;;4.47;2.28;;;;;;;13.54;75.08;99180.72;4460873;32;33130;-77
2023/10/24 06:21:12;;;;;;;5.05;2.62;;;;;;;13.46;76.16;99173.16;4473173;32;34624;-77
2023/10/24 06:23:50;;;;;;;4.82;2.47;;;;;;;13.60;75.59;99160.50;4482075;32;34123;-77
2023/10/24 06:26:19;;;;;;;3.22;2.25;;;;;;;13.59;76.17;99178.81;4484236;32;33401;-76
2023/10/24 06:28:50;;;;;;;5.90;3.05;;;;;;;13.81;75.66;99169.34;4488182;31;33626;-78
2023/10/24 06:31:20;;;;;;;5.50;2.72;;;;;;;13.80;75.83;99166.81;4469945;32;33911;-76
2023/10/24 06:33:51;;;;;;;4.32;2.67;;;;;;;13.76;76.45;99158.22;4467683;32;33366;-77
2023/10/24 06:36:21;;;;;;;5.18;2.58;;;;;;;13.93;76.00;99170.66;4468182;32;33869;-75
2023/10/24 06:38:55;;;;;;;7.40;2.60;;;;;;;14.06;75.27;99179.78;4462988;32;33560;-75
2023/10/24 06:41:24;;;;;;;6.97;2.37;;;;;;;14.02;75.74;99191.22;4462544;32;33371;-77
2023/10/24 06:43:54;;;;;;;4.43;2.67;;;;;;;14.09;75.73;99181.41;4468460;32;32444;-76
2023/10/24 06:46:23;;;;;;;5.03;2.85;;;;;;;14.06;76.30;99165.84;4475736;32;35157;-77
2023/10/24 06:48:53;;;;;;;5.20;2.72;;;;;;;14.21;76.18;99167.94;4480093;32;34358;-76
2023/10/24 06:51:23;;;;;;;5.10;2.30;;;;;;;14.25;76.12;99166.88;4469208;32;32420;-76
2023/10/24 06:53:57;;;;;;;6.83;2.77;;;;;;;14.14;76.91;99148.19;4467925;32;33086;-75
2023/10/24 06:56:25;;;;;;;7.22;3.55;;;;;;;14.32;76.94;99138.81;4465318;32;33543;-75
2023/10/24 06:58:55;;;;;;;19.85;3.90;;;;;;;14.40;76.68;99148.97;4461825;32;34289;-78
2023/10/24 07:01:27;;;;;;;26.20;6.40;;;;;;;14.39;76.88;99155.94;4462011;32;34114;-78
2023/10/24 07:03:58;;;;;;;14.20;4.80;;;;;;;14.23;77.22;99141.75;4465329;32;34057;-75
2023/10/24 07:06:27;;;;;;;11.75;2.87;;;;;;;14.46;76.70;99136.53;4479131;32;34630;-76
2023/10/24 07:09:00;;;;;;;5.60;2.80;;;;;;;14.55;76.10;99147.59;4477591;32;33790;-77
2023/10/24 07:11:29;;;;;;;4.30;2.60;;;;;;;14.54;76.19;99145.88;4483162;32;33547;-76
2023/10/24 07:13:59;;;;;;;7.90;2.47;;;;;;;14.57;75.87;99146.63;4477801;32;33045;-76
2023/10/24 07:16:28;;;;;;;8.55;3.25;;;;;;;14.84;74.77;99156.91;4464092;32;33339;-76
2023/10/24 07:19:03;;;;;;;4.60;2.28;;;;;;;14.91;74.02;99156.59;4477658;32;34858;-76
2023/10/24 07:21:32;;;;;;;7.57;2.87;;;;;;;14.67;75.23;99152.34;4483372;32;34529;-75
2023/10/24 07:24:05;;;;;;;4.53;2.45;;;;;;;14.80;75.20;99139.66;4481707;32;35608;-76
2023/10/24 07:26:34;;;;;;;4.93;2.47;;;;;;;14.73;75.26;99145.09;4478169;32;34527;-76
2023/10/24 07:29:06;;;;;;;7.68;2.55;;;;;;;14.80;75.33;99143.09;4478020;32;33997;-78
2023/10/24 07:31:35;;;;;;;6.03;2.90;;;;;;;14.91;74.96;99146.16;4479797;32;33340;-77
2023/10/24 07:34:07;;;;;;;7.05;3.05;;;;;;;14.70;76.23;99149.59;4483759;32;33969;-77
2023/10/24 07:36:36;;;;;;;5.80;3.03;;;;;;;14.88;75.15;99148.03;4481101;32;34389;-76
2023/10/24 07:39:14;;;;;;;5.57;2.40;;;;;;;15.07;73.92;99149.00;4478016;32;33972;-77
2023/10/24 07:41:50;;;;;;;4.87;2.30;;;;;;;15.05;74.20;99139.53;4477646;32;34557;-78
2023/10/24 07:44:19;;;;;;;6.25;3.03;;;;;;;14.84;75.10;99126.41;4482704;32;33109;-75
2023/10/24 07:46:54;;;;;;;7.55;3.03;;;;;;;15.08;74.16;99127.19;4467364;32;34113;-77
2023/10/24 07:49:23;;;;;;;5.87;2.45;;;;;;;14.95;74.83;99125.97;4461960;32;33206;-78
2023/10/24 07:51:54;;;;;;;5.70;2.90;;;;;;;14.97;74.46;99126.78;4470702;32;33342;-77
2023/10/24 07:54:24;;;;;;;8.57;3.40;;;;;;;15.10;74.07;99127.13;4465199;32;33834;-79
2023/10/24 07:56:57;;;;;;;6.83;3.67;;;;;;;15.10;74.14;99132.34;4460948;32;33453;-76
2023/10/24 07:59:28;;;;;;;5.82;3.25;;;;;;;15.20;73.72;99123.25;4467699;32;33759;-79
2023/10/24 08:02:05;;;;;;;9.52;3.22;;;;;;;15.18;73.53;99117.22;4461876;32;34167;-78
2023/10/24 08:04:40;;;;;;;5.22;2.78;;;;;;;15.43;72.55;99110.97;4463541;32;33616;-76
2023/10/24 08:07:09;;;;;;;10.18;3.25;;;;;;;15.39;73.10;99123.31;4462437;32;34483;-77
2023/10/24 08:09:40;;;;;;;5.30;2.78;;;;;;;15.39;72.04;99127.69;4467748;32;33884;-77
2023/10/24 08:12:09;;;;;;;5.57;2.87;;;;;;;15.23;73.07;99127.47;4462034;32;34356;-76
2023/10/24 08:14:40;;;;;;;5.18;2.85;;;;;;;15.75;70.66;99118.31;4463330;32;34094;-76
2023/10/24 08:17:09;;;;;;;5.75;3.45;;;;;;;15.55;71.84;99116.50;4461554;32;33688;-76
2023/10/24 08:19:43;;;;;;;5.55;2.53;;;;;;;15.55;72.20;99120.91;4476785;31;33805;-77
2023/10/24 08:22:12;;;;;;;5.25;2.97;;;;;;;15.70;71.34;99120.25;4475513;32;34209;-76
2023/10/24 08:24:45;;;;;;;7.97;3.78;;;;;;;15.81;71.35;99124.19;4472495;32;35530;-79
2023/10/24 08:27:16;;;;;;;5.03;2.72;;;;;;;16.01;70.45;99126.78;4474107;32;33372;-78
2023/10/24 08:29:52;;;;;;;6.00;3.40;;;;;;;15.72;71.67;99123.66;4476346;31;34820;-78
2023/10/24 08:32:21;;;;;;;9.68;3.05;;;;;;;15.90;71.46;99129.00;4476836;31;33958;-78
2023/10/24 08:34:58;;;;;;;9.50;3.62;;;;;;;15.95;71.68;99121.81;4479129;31;33008;-77
2023/10/24 08:37:27;;;;;;;8.32;3.47;;;;;;;15.98;71.98;99119.06;4492892;31;33562;-77
2023/10/24 08:39:58;;;;;;;6.60;2.95;;;;;;;16.21;70.61;99118.03;4476771;32;34029;-76
2023/10/24 08:42:31;;;;;;;11.87;3.10;;;;;;;16.20;70.84;99114.56;4467884;32;33708;-75
2023/10/24 08:45:00;;;;;;;6.28;4.10;;;;;;;16.24;70.96;99112.66;4474588;32;32609;-76
2023/10/24 08:47:31;;;;;;;4.50;2.72;;;;;;;16.38;70.61;99114.63;4478880;32;35284;-78
2023/10/24 08:50:01;;;;;;;6.00;3.37;;;;;;;16.53;69.75;99111.31;4472139;32;33554;-76
2023/10/24 08:52:33;;;;;;;;;;;;;;;16.52;69.72;99109.59;4466832;32;33816;-79
2023/10/24 08:55:04;;;;;;;5.18;2.65;;;;;;;16.64;69.46;99102.94;4474622;32;32577;-78
2023/10/24 08:57:38;;;;;;;4.43;2.40;;;;;;;16.69;69.21;99111.44;4473275;32;34131;-76
2023/10/24 09:00:17;;;;;;;5.05;2.75;;;;;;;16.85;68.75;99108.97;4468689;32;34078;-77
2023/10/24 09:02:50;;;;;;;5.10;2.70;;;;;;;16.97;68.56;99107.53;4473020;32;35082;-76
2023/10/24 09:05:28;;;;;;;5.18;2.65;;;;;;;16.74;69.44;99103.34;4477875;32;33657;-79
2023/10/24 09:07:59;;;;;;;6.22;2.28;;;;;;;17.13;67.75;99098.00;4477507;32;34569;-77
2023/10/24 09:10:32;;;;;;;6.78;2.87;;;;;;;17.16;67.68;99097.84;4482686;32;33932;-76
2023/10/24 09:13:04;;;;;;;5.43;3.15;;;;;;;17.31;67.68;99090.97;4477255;32;34219;-77
2023/10/24 09:15:34;;;;;;;6.62;2.85;;;;;;;17.34;67.83;99074.25;4480401;32;32322;-77
2023/10/24 09:18:04;;;;;;;5.18;2.62;;;;;;;17.25;68.10;99060.69;4477716;32;33076;-78
2023/10/24 09:20:34;;;;;;;7.82;2.35;;;;;;;17.34;67.92;99059.34;4479714;32;33854;-77
2023/10/24 09:23:06;;;;;;;5.90;3.12;;;;;;;17.43;67.32;99053.63;4482791;32;34203;-77
2023/10/24 09:25:36;;;;;;;5.00;2.22;;;;;;;17.44;67.40;99049.25;4483257;32;33047;-80
2023/10/24 09:28:16;;;;;;;4.62;2.45;;;;;;;17.67;66.48;99063.78;4477118;32;34602;-78
2023/10/24 09:30:49;;;;;;;6.62;3.30;;;;;;;17.75;66.30;99063.37;4477268;32;34546;-76
2023/10/24 09:33:18;;;;;;;4.37;2.55;;;;;;;17.71;66.30;99070.59;4482794;32;33529;-80
2023/10/24 09:35:50;;;;;;;6.28;2.65;;;;;;;17.45;67.32;99069.31;4479600;32;33207;-79
2023/10/24 09:38:42;;;;;;;4.37;2.15;;;;;;;17.82;66.42;99070.87;4476730;32;35062;-80
2023/10/24 09:41:17;;;;;;;4.75;2.60;;;;;;;18.11;65.44;99081.59;4476865;32;33453;-79
2023/10/24 09:43:48;;;;;;;13.35;3.37;;;;;;;18.09;66.09;99075.59;4477495;32;33520;-77
2023/10/24 09:46:24;;;;;;;5.05;2.33;;;;;;;18.16;65.87;99078.72;4473617;32;33864;-76
2023/10/24 09:48:58;;;;;;;5.78;3.00;;;;;;;18.36;64.99;99072.38;4482373;32;34622;-78
2023/10/24 09:51:28;;;;;;;4.95;2.28;;;;;;;18.64;64.17;99079.59;4476894;32;33961;-80
2023/10/24 09:53:59;;;;;;;6.43;1.52;;;;;;;18.80;63.69;99087.47;4474113;32;33797;-78
2023/10/24 09:56:30;;;;;;;3.10;1.37;;;;;;;18.90;64.18;99075.53;4467634;32;32740;-78
2023/10/24 09:59:03;;;;;;;3.58;1.77;;;;;;;18.99;63.54;99056.56;4485697;32;33069;-76
2023/10/24 10:01:33;;;;;;;2.72;1.25;;;;;;;19.22;62.81;99046.50;4482594;32;34598;-80
2023/10/24 10:04:05;;;;;;;3.03;1.70;;;;;;;19.34;62.55;99051.88;4474383;32;34056;-77
2023/10/24 10:06:34;;;;;;;2.75;1.50;;;;;;;19.28;61.93;99054.91;4482383;32;33792;-80
2023/10/24 10:09:28;;;;;;;2.62;1.05;;;;;;;19.55;60.45;99035.78;4482082;32;33525;-79
2023/10/24 10:12:01;;;;;;;1.52;1.05;;;;;;;19.69;60.48;99034.94;4483573;32;33642;-76
2023/10/24 10:14:45;;;;;;;2.95;1.12;;;;;;;19.72;60.33;99026.88;4484415;32;33632;-76
2023/10/24 10:17:23;;;;;;;4.10;2.08;;;;;;;19.72;60.54;99000.56;4478906;32;33278;-79
2023/10/24 10:20:12;;;;;;;2.17;0.82;;;;;;;19.90;60.05;99002.03;4483123;31;33372;-77
2023/10/24 10:23:04;;;;;;;2.72;1.00;;;;;;;20.03;59.77;98995.06;4479859;31;33373;-79
2023/10/24 10:26:06;;;;;;;1.87;0.85;;;;;;;20.15;59.11;98995.22;4473646;32;33417;-80
2023/10/24 10:28:59;;;;;;;1.25;0.80;;;;;;;19.99;58.95;98995.34;4475837;32;34074;-78
2023/10/24 10:31:54;;;;;;;3.33;1.02;;;;;;;20.05;58.31;99005.47;4481236;32;33775;-78
2023/10/24 10:34:44;;;;;;;1.90;1.02;;;;;;;20.01;58.44;98998.75;4472763;32;34523;-79
2023/10/24 10:37:14;;;;;;;1.23;0.77;;;;;;;20.08;58.50;98996.53;4489795;31;33967;-76
2023/10/24 10:40:14;;;;;;;1.87;1.17;;;;;;;20.11;58.59;98997.22;4465367;32;32991;-77
2023/10/24 10:42:48;;;;;;;1.02;0.73;;;;;;;20.11;59.01;98986.69;4464248;32;33405;-76
2023/10/24 10:45:26;;;;;;;1.08;0.88;;;;;;;20.20;58.92;98980.84;4463992;32;33437;-79
2023/10/24 10:47:59;;;;;;;0.88;0.60;;;;;;;20.30;58.80;98973.19;4463996;32;33815;-76
2023/10/24 10:50:29;;;;;;;2.78;0.80;;;;;;;20.33;58.45;98975.59;4476689;32;33390;-77
2023/10/24 10:53:29;;;;;;;3.22;0.90;;;;;;;20.45;58.45;98982.72;4480994;32;34630;-78
2023/10/24 10:56:18;;;;;;;1.23;0.70;;;;;;;20.52;57.94;98984.97;4482949;32;33592;-79
2023/10/24 10:59:25;;;;;;;2.37;0.95;;;;;;;20.56;58.12;98989.97;4481020;32;33636;-77
2023/10/24 11:02:09;;;;;;;1.33;0.60;;;;;;;20.69;57.57;98984.72;4474639;32;32857;-76
2023/10/24 11:04:39;;;;;;;1.62;0.85;;;;;;;20.76;57.79;98985.16;4474846;32;33585;-79
2023/10/24 11:07:08;;;;;;;1.67;0.65;;;;;;;20.56;57.60;98986.47;4468235;32;34007;-76
2023/10/24 11:09:44;;;;;;;1.85;0.68;;;;;;;20.59;57.96;98981.84;4469348;32;34196;-77
2023/10/24 11:12:28;;;;;;;1.33;0.80;;;;;;;20.66;57.88;98990.19;4462165;32;34340;-77
2023/10/24 11:15:40;;;;;;;1.52;0.90;;;;;;;20.64;58.34;98994.72;4464407;32;33117;-80
2023/10/24 11:18:14;;;;;;;1.62;0.93;;;;;;;20.53;58.34;98997.19;4448573;32;34367;-79
2023/10/24 11:20:43;;;;;;;1.40;0.68;;;;;;;20.60;58.50;98995.87;4461792;32;33660;-79
2023/10/24 11:23:13;;;;;;;1.90;1.12;;;;;;;20.57;58.59;99001.34;4463079;32;33057;-78
2023/10/24 11:25:43;;;;;;;;;;;;;;;20.63;58.04;98995.66;4468335;32;33947;-78
2023/10/24 11:28:13;;;;;;;0.60;0.47;;;;;;;20.45;58.29;98987.97;4462516;32;34080;-78
2023/10/24 11:30:42;;;;;;;2.40;1.10;;;;;;;20.55;58.50;98987.37;4462180;32;33379;-77
2023/10/24 11:33:13;;;;;;;1.55;0.70;;;;;;;20.61;58.15;98987.00;4469671;32;33875;-78
2023/10/24 11:35:47;;;;;;;1.60;0.80;;;;;;;20.60;58.63;98986.16;4479082;32;33633;-77
2023/10/24 11:38:21;;;;;;;3.03;1.05;;;;;;;20.70;58.28;98983.75;4483621;32;34429;-78
2023/10/24 11:40:49;;;;;;;7.75;1.35;;;;;;;20.49;58.81;98993.91;4477778;32;34103;-78
2023/10/24 11:43:21;;;;;;;2.08;0.57;;;;;;;20.53;58.78;98981.38;4479420;32;33572;-78
2023/10/24 11:45:50;;;;;;;1.92;1.12;;;;;;;20.68;58.84;98993.56;4467817;32;33381;-77
2023/10/24 11:48:23;;;;;;;0.95;0.70;;;;;;;20.56;59.40;98982.06;4475818;32;34595;-77
2023/10/24 11:50:52;;;;;;;2.40;0.90;;;;;;;20.53;59.72;98994.53;4480614;32;34148;-77
2023/10/24 11:53:22;;;;;;;3.53;0.95;;;;;;;20.52;59.89;98984.97;4478708;32;33239;-76
2023/10/24 11:55:53;;;;;;;2.72;1.25;;;;;;;20.63;59.88;98991.25;4483085;32;33883;-78
2023/10/24 11:58:23;;;;;;;3.00;1.10;;;;;;;20.43;59.79;98987.22;4478129;32;34571;-77